Time;durP1;ratioP1;P1;durP2;ratioP2;P2;SDS_P1;SDS_P2;PMS_P1;PMS_P2;Temp;Humidity;BMP_temperature;BMP_pressure;BME280_temperature;BME280_humidity;BME280_pressure;Samples;Min_cycle;Max_cycle;Signal;HPM_P1;HPM_P2
2021/06/07 00:01:44;;;;;;;8.90;6.55;;;;;;;15.06;100.00;99374.54;1753393;81;21560;-48
2021/06/07 00:04:11;;;;;;;;;;;;;;;15.05;100.00;99374.17;1755163;81;21412;-46
2021/06/07 00:09:13;;;;;;;9.18;6.80;;;;;;;15.07;100.00;99369.97;1768747;78;22242;-57
2021/06/07 00:11:45;;;;;;;9.48;6.35;;;;;;;15.01;100.00;99374.02;1704591;83;20939;-55
2021/06/07 00:14:14;;;;;;;11.63;7.80;;;;;;;15.02;100.00;99368.98;1705041;81;20927;-55
2021/06/07 00:16:41;;;;;;;10.48;6.90;;;;;;;15.02;100.00;99375.78;1701634;82;20919;-57
2021/06/07 00:19:11;;;;;;;8.80;7.70;;;;;;;15.01;100.00;99365.87;1704132;83;20916;-56
2021/06/07 00:21:38;;;;;;;10.13;7.62;;;;;;;15.00;100.00;99369.58;1672876;83;21050;-56
2021/06/07 00:24:08;;;;;;;9.45;7.92;;;;;;;14.99;100.00;99365.12;1674227;83;20950;-49
2021/06/07 00:26:36;;;;;;;11.70;7.55;;;;;;;14.98;100.00;99370.19;1673818;83;21547;-46
2021/06/07 00:29:06;;;;;;;11.38;7.58;;;;;;;14.98;100.00;99371.55;1674030;83;21427;-47
2021/06/07 00:31:34;;;;;;;9.28;7.70;;;;;;;14.96;100.00;99370.77;1672430;83;20990;-46
2021/06/07 00:34:01;;;;;;;13.50;8.38;;;;;;;14.95;100.00;99371.77;1672922;83;20951;-47
2021/06/07 00:36:28;;;;;;;10.48;8.08;;;;;;;14.92;100.00;99367.94;1676170;83;20998;-46
2021/06/07 00:38:55;;;;;;;12.93;8.33;;;;;;;14.90;100.00;99374.81;1673684;83;21436;-46
2021/06/07 00:41:23;;;;;;;8.83;7.67;;;;;;;14.88;100.00;99371.85;1671183;83;21451;-47
2021/06/07 00:43:58;;;;;;;9.78;6.97;;;;;;;14.85;100.00;99371.58;1674225;83;20989;-47
2021/06/07 00:46:26;;;;;;;8.20;7.17;;;;;;;14.83;100.00;99369.97;1672494;84;21477;-47
2021/06/07 00:48:54;;;;;;;13.20;8.80;;;;;;;14.80;100.00;99375.61;1671293;83;21021;-46
2021/06/07 00:51:22;;;;;;;13.83;9.03;;;;;;;14.78;100.00;99376.23;1674867;83;21749;-47
2021/06/07 00:53:49;;;;;;;10.30;7.92;;;;;;;14.75;100.00;99386.80;1678184;83;20950;-46
2021/06/07 00:56:15;;;;;;;10.82;8.93;;;;;;;14.76;100.00;99387.70;1674590;83;20939;-46
2021/06/07 00:58:47;;;;;;;11.43;9.38;;;;;;;14.76;100.00;99387.70;1679116;84;21575;-46
2021/06/07 01:01:16;;;;;;;9.70;8.33;;;;;;;14.76;100.00;99384.98;1676895;83;20970;-47
2021/06/07 01:03:43;;;;;;;13.35;9.13;;;;;;;14.73;100.00;99383.84;1675059;83;21131;-47
2021/06/07 01:06:10;;;;;;;15.35;8.18;;;;;;;14.73;100.00;99382.48;1674722;83;20875;-47
2021/06/07 01:08:38;;;;;;;11.68;9.50;;;;;;;14.72;100.00;99375.32;1670697;84;20979;-48
2021/06/07 01:11:06;;;;;;;12.68;9.10;;;;;;;14.71;100.00;99373.59;1652362;85;21033;-48
2021/06/07 01:13:34;;;;;;;11.65;8.70;;;;;;;14.70;100.00;99379.97;1661287;85;21492;-46
2021/06/07 01:16:01;;;;;;;13.88;8.73;;;;;;;14.71;100.00;99381.73;1662764;84;21154;-53
2021/06/07 01:18:30;;;;;;;14.60;9.18;;;;;;;14.69;100.00;99387.25;1661878;85;20972;-47
2021/06/07 01:21:06;;;;;;;13.60;8.13;;;;;;;14.68;100.00;99387.75;1662235;85;21421;-47
2021/06/07 01:23:33;;;;;;;18.02;8.90;;;;;;;14.68;100.00;99390.46;1659033;84;20928;-47
2021/06/07 01:26:01;;;;;;;9.85;8.30;;;;;;;14.67;100.00;99387.38;1661928;85;20944;-47
2021/06/07 01:28:28;;;;;;;11.45;7.70;;;;;;;14.67;100.00;99390.09;1662202;85;21216;-48
2021/06/07 01:30:55;;;;;;;10.78;8.50;;;;;;;14.66;100.00;99388.36;1661818;85;20924;-48
2021/06/07 01:33:23;;;;;;;13.08;7.80;;;;;;;14.66;100.00;99388.36;1661940;85;20980;-47
2021/06/07 01:35:57;;;;;;;11.40;8.38;;;;;;;14.64;100.00;99387.59;1661335;85;20983;-47
2021/06/07 01:38:23;;;;;;;8.25;7.42;;;;;;;14.63;100.00;99393.13;1660293;84;26531;-47
2021/06/07 01:40:54;;;;;;;9.63;7.55;;;;;;;14.61;100.00;99398.69;1661422;85;21728;-47
2021/06/07 01:43:21;;;;;;;12.30;8.70;;;;;;;14.61;100.00;99395.97;1660349;84;20911;-47
2021/06/07 01:45:49;;;;;;;11.20;8.10;;;;;;;14.61;100.00;99397.81;1662367;85;21684;-46
2021/06/07 01:48:17;;;;;;;11.95;9.00;;;;;;;14.60;100.00;99394.24;1663187;84;20920;-47
2021/06/07 01:50:45;;;;;;;11.20;8.35;;;;;;;14.60;100.00;99394.24;1662370;84;21480;-47
2021/06/07 01:53:12;;;;;;;11.75;8.50;;;;;;;14.59;100.00;99400.63;1662726;85;21144;-48
2021/06/07 01:55:43;;;;;;;10.23;7.87;;;;;;;14.61;100.00;99406.83;1659618;85;20908;-54
2021/06/07 01:58:10;;;;;;;13.32;8.48;;;;;;;14.59;100.00;99403.33;1667446;84;21375;-56
2021/06/07 02:00:54;;;;;;;14.00;10.10;;;;;;;14.59;100.00;99406.05;1665275;84;20903;-56
2021/06/07 02:03:21;;;;;;;12.37;8.25;;;;;;;14.58;100.00;99404.32;1699425;83;20948;-59
2021/06/07 02:05:54;;;;;;;9.80;7.62;;;;;;;14.58;100.00;99404.32;1696515;81;21140;-58
2021/06/07 02:08:21;;;;;;;10.70;8.25;;;;;;;14.58;100.00;99401.60;1661165;85;20927;-57
2021/06/07 02:10:52;;;;;;;10.93;8.23;;;;;;;14.59;100.00;99407.41;1690965;83;21434;-57
2021/06/07 02:13:20;;;;;;;10.20;7.67;;;;;;;14.72;100.00;99410.61;1690654;83;21519;-57
2021/06/07 02:15:56;;;;;;;14.68;7.85;;;;;;;14.86;100.00;99405.02;1689483;82;21424;-57
2021/06/07 02:18:22;;;;;;;10.38;7.28;;;;;;;14.94;100.00;99405.34;1656414;83;21891;-49
2021/06/07 02:20:49;;;;;;;8.90;7.05;;;;;;;14.95;100.00;99409.78;1657758;83;21090;-47
2021/06/07 02:23:16;;;;;;;13.32;7.67;;;;;;;14.93;100.00;99417.18;1693623;82;20915;-47
2021/06/07 02:25:43;;;;;;;10.10;7.28;;;;;;;14.91;100.00;99412.34;1688960;82;20967;-47
2021/06/07 02:28:16;;;;;;;10.35;7.03;;;;;;;14.91;100.00;99419.13;1690804;83;20951;-48
2021/06/07 02:30:43;;;;;;;10.20;7.53;;;;;;;14.89;100.00;99418.38;1690367;83;21085;-47
2021/06/07 02:33:10;;;;;;;9.78;6.90;;;;;;;14.88;100.00;99420.72;1658561;83;20994;-46
2021/06/07 02:35:38;;;;;;;11.30;7.33;;;;;;;14.89;100.00;99425.17;1659991;83;21458;-48
2021/06/07 02:38:05;;;;;;;9.98;6.70;;;;;;;14.89;100.00;99421.09;1658724;83;20931;-47
2021/06/07 02:40:32;;;;;;;13.38;7.53;;;;;;;14.89;100.00;99426.53;1659876;83;21630;-48
2021/06/07 02:42:59;;;;;;;7.45;6.65;;;;;;;14.90;100.00;99424.19;1658244;83;21129;-47
2021/06/07 02:45:26;;;;;;;10.08;7.58;;;;;;;14.90;100.00;99426.41;1691708;83;21592;-52
2021/06/07 02:47:54;;;;;;;13.55;7.55;;;;;;;14.91;100.00;99424.55;1692403;82;21413;-47
2021/06/07 02:50:26;;;;;;;9.30;7.85;;;;;;;14.88;100.00;99424.80;1691849;83;20963;-47
2021/06/07 02:52:53;;;;;;;10.00;7.72;;;;;;;14.88;100.00;99427.52;1660522;83;20959;-47
2021/06/07 02:55:29;;;;;;;14.33;8.43;;;;;;;14.90;100.00;99437.76;1657756;85;21916;-54
2021/06/07 02:57:56;;;;;;;10.18;7.42;;;;;;;14.92;100.00;99429.03;1656262;83;20958;-55
2021/06/07 03:00:43;;;;;;;11.55;7.83;;;;;;;14.95;100.00;99435.58;1660924;83;20978;-60
2021/06/07 03:03:10;;;;;;;12.13;8.28;;;;;;;14.97;100.00;99430.92;1697954;82;20909;-57
2021/06/07 03:05:38;;;;;;;8.78;7.33;;;;;;;15.00;100.00;99429.31;1697716;82;21834;-61
2021/06/07 03:08:09;;;;;;;11.68;7.72;;;;;;;15.00;100.00;99426.60;1694563;83;21049;-57
2021/06/07 03:10:36;;;;;;;8.90;7.50;;;;;;;15.02;100.00;99430.09;1668206;84;21414;-55
2021/06/07 03:13:04;;;;;;;13.18;8.13;;;;;;;15.02;100.00;99432.81;1673867;84;21524;-57
2021/06/07 03:15:31;;;;;;;10.23;7.92;;;;;;;15.03;100.00;99429.11;1672020;84;20974;-57
2021/06/07 03:17:57;;;;;;;10.72;6.85;;;;;;;15.06;100.00;99418.00;1670379;83;20969;-56
2021/06/07 03:20:28;;;;;;;8.35;7.12;;;;;;;15.08;100.00;99425.56;1668177;84;21708;-56
2021/06/07 03:22:57;;;;;;;8.28;7.12;;;;;;;15.08;100.00;99416.05;1670129;83;21456;-58
2021/06/07 03:25:23;;;;;;;9.83;6.78;;;;;;;15.10;100.00;99415.44;1666858;84;21444;-58
2021/06/07 03:27:52;;;;;;;10.28;7.37;;;;;;;15.11;100.00;99410.38;1670159;84;20947;-57
2021/06/07 03:30:20;;;;;;;10.28;7.15;;;;;;;15.09;100.00;99406.92;1669320;84;21493;-57
2021/06/07 03:32:47;;;;;;;11.25;7.53;;;;;;;15.10;100.00;99408.64;1669554;84;22461;-56
2021/06/07 03:35:15;;;;;;;10.48;7.50;;;;;;;15.13;100.00;99402.14;1668301;84;21051;-58
2021/06/07 03:37:44;;;;;;;10.55;7.65;;;;;;;15.16;100.00;99406.83;1672648;83;20927;-59
2021/06/07 03:40:19;;;;;;;10.30;7.28;;;;;;;15.19;100.00;99412.53;1668321;83;21373;-57
2021/06/07 03:42:46;;;;;;;9.65;6.65;;;;;;;15.23;100.00;99414.52;1668419;83;20994;-56
2021/06/07 03:45:13;;;;;;;10.43;6.67;;;;;;;15.26;100.00;99412.45;1669049;83;21262;-56
2021/06/07 03:47:40;;;;;;;9.20;8.03;;;;;;;15.30;100.00;99410.38;1670831;84;21041;-56
2021/06/07 03:50:08;;;;;;;11.30;7.55;;;;;;;15.33;100.00;99406.05;1672733;84;20892;-58
2021/06/07 03:52:35;;;;;;;9.80;7.05;;;;;;;15.38;100.00;99416.08;1670085;84;20950;-56
2021/06/07 03:55:04;;;;;;;9.63;7.47;;;;;;;15.41;100.00;99415.38;1674180;84;20879;-57
2021/06/07 03:57:31;;;;;;;10.10;6.90;;;;;;;15.45;100.00;99416.02;1665355;83;21181;-56
2021/06/07 03:59:58;;;;;;;8.75;7.30;;;;;;;15.50;100.00;99423.80;1665183;83;21400;-58
2021/06/07 04:02:25;;;;;;;10.05;7.70;;;;;;;15.52;100.00;99421.34;1665125;84;20948;-57
2021/06/07 04:04:51;;;;;;;10.30;7.17;;;;;;;15.56;100.00;99421.50;1644347;84;21488;-57
2021/06/07 04:07:18;;;;;;;9.75;7.20;;;;;;;15.57;100.00;99420.52;1655234;84;20920;-56
2021/06/07 04:09:46;;;;;;;11.35;9.38;;;;;;;15.60;100.00;99422.97;1657094;84;21588;-57
2021/06/07 04:12:13;;;;;;;9.53;7.35;;;;;;;15.62;100.00;99421.52;1646635;84;21146;-56
2021/06/07 04:14:41;;;;;;;9.15;7.80;;;;;;;15.64;100.00;99419.08;1649910;85;20972;-57
2021/06/07 04:17:09;;;;;;;13.75;8.35;;;;;;;15.69;100.00;99424.17;1648398;85;20972;-56
2021/06/07 04:19:36;;;;;;;8.63;7.72;;;;;;;15.70;100.00;99426.76;1646936;84;21107;-56
2021/06/07 04:22:04;;;;;;;8.65;7.55;;;;;;;15.76;100.00;99430.86;1648332;84;21643;-57
2021/06/07 04:24:31;;;;;;;8.58;7.30;;;;;;;15.83;100.00;99432.64;1648046;85;21017;-58
2021/06/07 04:26:59;;;;;;;10.70;8.50;;;;;;;15.89;100.00;99434.88;1645235;84;20976;-57
2021/06/07 04:29:26;;;;;;;8.45;7.37;;;;;;;15.95;100.00;99437.13;1654206;84;20972;-57
2021/06/07 04:31:53;;;;;;;9.25;8.05;;;;;;;16.04;100.00;99432.34;1649485;84;20921;-57
2021/06/07 04:34:20;;;;;;;10.53;7.40;;;;;;;16.13;100.00;99445.20;1652562;85;21120;-56
2021/06/07 04:36:47;;;;;;;10.30;7.85;;;;;;;16.17;100.00;99437.67;1647524;84;21043;-56
2021/06/07 04:39:13;;;;;;;12.60;8.53;;;;;;;16.21;100.00;99438.67;1650955;85;21446;-57
2021/06/07 04:41:41;;;;;;;10.48;8.13;;;;;;;16.26;100.00;99442.40;1650450;85;21080;-59
2021/06/07 04:44:08;;;;;;;10.82;7.28;;;;;;;16.31;100.00;99436.60;1647762;84;21454;-57
2021/06/07 04:46:35;;;;;;;13.58;7.75;;;;;;;16.37;100.00;99436.11;1647033;85;21996;-55
2021/06/07 04:49:01;;;;;;;10.30;8.25;;;;;;;16.48;100.00;99441.56;1644656;85;21016;-59
2021/06/07 04:51:29;;;;;;;12.40;8.35;;;;;;;16.60;100.00;99435.13;1648828;85;20956;-56
2021/06/07 04:53:56;;;;;;;10.58;8.40;;;;;;;16.63;100.00;99445.79;1647709;85;21002;-58
2021/06/07 04:56:23;;;;;;;10.00;7.97;;;;;;;16.61;100.00;99446.38;1647820;86;21549;-59
2021/06/07 04:58:50;;;;;;;11.28;7.42;;;;;;;16.62;100.00;99448.14;1646847;86;21802;-59
2021/06/07 05:03:35;;;;;;;11.57;7.92;;;;;;;16.67;100.00;99440.48;1766566;79;22109;-59
2021/06/07 05:06:03;;;;;;;8.75;7.67;;;;;;;16.64;100.00;99447.52;1701386;81;21479;-59
2021/06/07 05:08:30;;;;;;;13.30;8.68;;;;;;;16.66;100.00;99445.52;1693074;83;21105;-57
2021/06/07 05:10:57;;;;;;;12.37;7.72;;;;;;;16.69;100.00;99452.59;1696907;83;20979;-58
2021/06/07 05:13:25;;;;;;;13.15;8.15;;;;;;;16.73;100.00;99450.90;1692310;81;21050;-58
2021/06/07 05:15:54;;;;;;;15.48;7.97;;;;;;;16.76;100.00;99447.91;1693551;83;20992;-58
2021/06/07 05:18:21;;;;;;;16.85;9.45;;;;;;;16.80;99.67;99451.27;1692335;83;21427;-57
2021/06/07 05:22:44;;;;;;;15.15;8.65;;;;;;;16.96;98.61;99450.89;1765775;79;22807;-58
2021/06/07 05:25:11;;;;;;;14.33;8.70;;;;;;;17.01;98.47;99455.47;1712391;81;20935;-58
2021/06/07 05:27:38;;;;;;;10.85;8.80;;;;;;;17.11;97.67;99455.09;1692798;83;21128;-59
2021/06/07 05:30:06;;;;;;;12.53;8.70;;;;;;;17.18;96.90;99449.49;1691251;83;21462;-59
2021/06/07 05:32:33;;;;;;;16.45;10.48;;;;;;;17.23;96.09;99454.07;1695233;82;20924;-59
2021/06/07 05:35:00;;;;;;;12.33;8.63;;;;;;;17.27;95.22;99456.05;1692492;82;21444;-58
2021/06/07 05:37:28;;;;;;;12.18;8.80;;;;;;;17.31;94.62;99459.37;1691340;82;20939;-58
2021/06/07 05:39:55;;;;;;;13.68;9.85;;;;;;;17.33;94.12;99457.41;1693915;82;21837;-59
2021/06/07 05:42:22;;;;;;;16.15;9.23;;;;;;;17.41;94.14;99456.25;1690441;82;21526;-60
2021/06/07 05:44:48;;;;;;;11.43;8.73;;;;;;;17.50;93.47;99459.58;1697786;83;20970;-58
2021/06/07 05:47:15;;;;;;;12.10;9.30;;;;;;;17.51;92.61;99461.31;1691110;82;20925;-58
2021/06/07 05:49:42;;;;;;;14.73;9.65;;;;;;;17.56;92.13;99469.97;1700791;83;20971;-59
2021/06/07 05:52:09;;;;;;;11.78;9.23;;;;;;;17.61;91.84;99459.55;1697463;82;20907;-59
2021/06/07 05:54:37;;;;;;;13.20;8.65;;;;;;;17.78;91.32;99463.11;1696023;82;21572;-60
2021/06/07 05:57:04;;;;;;;15.45;9.10;;;;;;;17.89;90.29;99465.42;1698752;82;20916;-59
2021/06/07 05:59:32;;;;;;;11.05;8.23;;;;;;;17.89;88.81;99468.16;1702105;82;20942;-58
2021/06/07 06:01:59;;;;;;;11.30;8.20;;;;;;;17.87;88.16;99475.61;1696200;82;20915;-59
2021/06/07 06:04:26;;;;;;;10.78;7.37;;;;;;;17.89;86.90;99474.97;1701591;82;21131;-58
2021/06/07 06:06:53;;;;;;;9.85;6.87;;;;;;;17.98;86.70;99472.84;1701748;82;21611;-59
2021/06/07 06:09:20;;;;;;;13.53;8.35;;;;;;;18.11;86.03;99469.44;1697830;81;20927;-60
2021/06/07 06:11:47;;;;;;;10.82;7.83;;;;;;;18.18;85.69;99465.67;1699440;82;21006;-60
2021/06/07 06:14:14;;;;;;;11.83;8.15;;;;;;;18.12;85.17;99467.07;1704839;82;20900;-59
2021/06/07 06:16:40;;;;;;;11.28;8.15;;;;;;;18.09;85.40;99464.59;1701544;82;21083;-59
2021/06/07 06:19:10;;;;;;;12.78;9.25;;;;;;;18.09;84.74;99465.95;1701629;82;20963;-61
2021/06/07 06:21:39;;;;;;;12.28;7.67;;;;;;;18.08;84.97;99468.33;1701401;82;20891;-59
2021/06/07 06:24:11;;;;;;;9.73;7.37;;;;;;;18.03;84.77;99465.13;1694372;82;20931;-58
2021/06/07 06:26:39;;;;;;;9.60;7.40;;;;;;;17.99;84.02;99465.02;1698635;82;21052;-59
2021/06/07 06:29:06;;;;;;;13.28;7.70;;;;;;;17.95;83.77;99471.72;1700834;82;21753;-59
2021/06/07 06:31:33;;;;;;;9.35;7.95;;;;;;;17.95;83.58;99468.98;1697460;82;21584;-59
2021/06/07 06:34:02;;;;;;;11.85;7.58;;;;;;;17.95;83.53;99479.44;1702976;82;20903;-58
2021/06/07 06:36:29;;;;;;;13.65;6.78;;;;;;;18.01;83.84;99473.95;1696134;82;21500;-60
2021/06/07 06:38:57;;;;;;;9.45;6.67;;;;;;;18.06;83.60;99474.42;1701249;82;20888;-58
2021/06/07 06:41:24;;;;;;;9.65;6.67;;;;;;;18.11;83.57;99470.80;1699004;82;21766;-59
2021/06/07 06:43:52;;;;;;;12.93;7.87;;;;;;;18.17;82.71;99469.41;1696132;82;20924;-59
2021/06/07 06:46:19;;;;;;;13.88;7.17;;;;;;;18.24;81.90;99476.92;1696667;82;20927;-58
2021/06/07 06:48:47;;;;;;;9.75;7.17;;;;;;;18.27;81.56;99473.94;1700395;82;21105;-59
2021/06/07 06:51:13;;;;;;;11.73;7.75;;;;;;;18.28;80.73;99478.39;1694264;82;20900;-58
2021/06/07 06:53:40;;;;;;;10.80;7.70;;;;;;;18.35;81.34;99480.59;1694949;82;21127;-59
2021/06/07 06:56:07;;;;;;;8.93;6.28;;;;;;;18.40;81.14;99479.69;1698235;82;21063;-59
2021/06/07 06:58:34;;;;;;;12.90;7.55;;;;;;;18.37;80.85;99484.04;1695923;82;20920;-60
2021/06/07 07:01:00;;;;;;;8.28;6.33;;;;;;;18.36;81.17;99479.58;1696896;82;21465;-58
2021/06/07 07:03:28;;;;;;;7.95;6.80;;;;;;;18.39;81.28;99483.42;1691730;83;21492;-59
2021/06/07 07:05:55;;;;;;;10.00;6.97;;;;;;;18.44;81.02;99479.80;1697940;82;21118;-60
2021/06/07 07:08:24;;;;;;;14.15;7.50;;;;;;;18.56;80.79;99481.45;1691273;83;21034;-59
2021/06/07 07:10:53;;;;;;;12.33;6.87;;;;;;;18.69;79.91;99486.21;1693102;82;20907;-59
2021/06/07 07:13:20;;;;;;;12.47;7.42;;;;;;;18.78;79.70;99483.18;1705013;82;20979;-60
2021/06/07 07:15:48;;;;;;;8.73;6.67;;;;;;;18.89;79.36;99476.77;1692621;82;20931;-60
2021/06/07 07:18:15;;;;;;;8.43;6.75;;;;;;;18.94;78.55;99475.85;1705911;82;21121;-60
2021/06/07 07:20:43;;;;;;;10.90;7.72;;;;;;;19.00;78.44;99473.94;1704527;82;20976;-62
2021/06/07 07:23:10;;;;;;;12.30;7.45;;;;;;;19.00;77.09;99473.94;1679253;83;20972;-60
2021/06/07 07:25:37;;;;;;;11.63;7.03;;;;;;;18.96;78.03;99484.30;1687865;82;20936;-57
2021/06/07 07:28:05;;;;;;;12.25;7.25;;;;;;;19.02;78.25;99488.34;1686038;82;20924;-58
2021/06/07 07:30:34;;;;;;;10.28;6.00;;;;;;;19.09;77.65;99481.31;1661210;84;21307;-57
2021/06/07 07:33:01;;;;;;;8.18;6.08;;;;;;;19.17;77.24;99477.38;1681395;82;20920;-57
2021/06/07 07:35:28;;;;;;;10.93;6.25;;;;;;;19.24;76.58;99477.20;1678953;82;20980;-58
2021/06/07 07:37:55;;;;;;;7.70;5.25;;;;;;;19.34;75.47;99483.56;1678371;82;20959;-57
2021/06/07 07:40:23;;;;;;;7.28;4.20;;;;;;;19.37;74.18;99474.20;1677377;82;21585;-57
2021/06/07 07:42:51;;;;;;;5.95;4.70;;;;;;;19.46;74.10;99484.31;1678851;82;21780;-59
2021/06/07 07:45:19;;;;;;;8.55;5.37;;;;;;;19.52;74.11;99469.20;1683110;82;20924;-58
2021/06/07 07:47:46;;;;;;;8.60;4.40;;;;;;;19.55;73.94;99479.88;1687566;82;21581;-57
2021/06/07 07:50:16;;;;;;;7.15;3.95;;;;;;;19.65;74.19;99478.03;1676899;84;20952;-59
2021/06/07 07:52:44;;;;;;;8.17;4.40;;;;;;;19.77;73.11;99475.55;1692618;82;21886;-57
2021/06/07 07:55:13;;;;;;;6.20;3.98;;;;;;;19.82;72.73;99477.36;1687519;82;22401;-47
2021/06/07 07:57:41;;;;;;;4.97;3.65;;;;;;;19.79;72.54;99477.63;1678669;82;21492;-48
2021/06/07 08:00:10;;;;;;;5.85;4.42;;;;;;;19.83;71.83;99474.97;1681806;82;20897;-47
2021/06/07 08:02:39;;;;;;;6.50;4.00;;;;;;;19.88;71.85;99482.25;1680821;82;20897;-48
2021/06/07 08:05:07;;;;;;;3.87;3.35;;;;;;;19.93;70.60;99486.44;1675960;84;20936;-46
2021/06/07 08:07:34;;;;;;;7.03;3.47;;;;;;;19.89;70.26;99484.48;1682543;84;21332;-47
2021/06/07 08:10:01;;;;;;;3.62;3.10;;;;;;;19.86;70.53;99484.25;1684552;82;21299;-62
2021/06/07 08:12:28;;;;;;;5.65;3.85;;;;;;;19.85;70.24;99479.78;1684866;82;20976;-54
2021/06/07 08:14:56;;;;;;;5.70;3.87;;;;;;;19.84;71.15;99476.70;1685112;82;21354;-57
2021/06/07 08:17:23;;;;;;;6.17;4.30;;;;;;;19.82;71.70;99473.25;1680934;82;20912;-58
2021/06/07 08:19:50;;;;;;;5.55;4.50;;;;;;;19.80;72.30;99470.28;1692080;82;21106;-50
2021/06/07 08:22:19;;;;;;;8.50;4.30;;;;;;;19.75;70.98;99485.75;1683513;83;21528;-50
2021/06/07 08:24:46;;;;;;;8.28;4.20;;;;;;;19.71;71.27;99477.49;1681050;82;21666;-49
2021/06/07 08:27:13;;;;;;;6.95;4.47;;;;;;;19.69;71.83;99482.22;1685450;82;20924;-51
2021/06/07 08:29:39;;;;;;;8.23;4.50;;;;;;;19.73;72.03;99478.20;1677025;82;21449;-52
2021/06/07 08:32:07;;;;;;;6.53;4.55;;;;;;;19.83;71.97;99477.71;1678476;82;21112;-50
2021/06/07 08:34:34;;;;;;;6.87;4.47;;;;;;;19.90;72.11;99473.89;1679320;84;21015;-60
2021/06/07 08:37:03;;;;;;;6.95;4.45;;;;;;;19.99;72.45;99474.91;1683824;82;21468;-59
2021/06/07 08:39:30;;;;;;;6.53;3.83;;;;;;;20.06;71.82;99476.05;1690363;82;20956;-61
2021/06/07 08:41:59;;;;;;;6.20;3.85;;;;;;;20.11;71.51;99476.48;1678440;82;21457;-50
2021/06/07 08:44:27;;;;;;;4.55;3.55;;;;;;;20.17;70.62;99481.38;1683385;84;21730;-50
2021/06/07 08:46:54;;;;;;;7.85;3.50;;;;;;;20.25;68.21;99480.67;1677685;82;21428;-51
2021/06/07 08:49:22;;;;;;;6.58;3.50;;;;;;;20.30;66.63;99481.10;1684720;82;20940;-51
2021/06/07 08:51:50;;;;;;;8.45;3.37;;;;;;;20.31;65.25;99480.95;1683229;83;21476;-50
2021/06/07 08:54:18;;;;;;;3.98;3.42;;;;;;;20.32;65.28;99477.19;1680686;82;21509;-50
2021/06/07 08:56:45;;;;;;;6.20;3.77;;;;;;;20.35;66.20;99482.39;1682279;82;21116;-51
2021/06/07 08:59:14;;;;;;;4.33;3.37;;;;;;;20.40;66.18;99484.19;1679327;82;20916;-50
2021/06/07 09:01:41;;;;;;;5.65;3.47;;;;;;;20.50;66.00;99476.47;1683548;82;21003;-50
2021/06/07 09:04:16;;;;;;;4.45;3.70;;;;;;;20.58;65.59;99478.84;1682589;82;20928;-50
2021/06/07 09:06:48;;;;;;;6.70;4.20;;;;;;;20.60;65.62;99469.09;1684327;82;21004;-51
2021/06/07 09:09:18;;;;;;;5.90;3.98;;;;;;;20.65;65.96;99477.73;1682467;82;21114;-50
2021/06/07 09:12:01;;;;;;;5.15;3.80;;;;;;;20.69;66.19;99473.70;1691014;82;20878;-49
2021/06/07 09:14:31;;;;;;;6.30;3.87;;;;;;;20.76;66.31;99480.30;1681761;82;20979;-51
2021/06/07 09:16:58;;;;;;;7.22;3.80;;;;;;;20.80;65.26;99483.62;1690058;84;21465;-49
2021/06/07 09:19:30;;;;;;;6.47;3.62;;;;;;;20.80;64.72;99469.91;1693761;82;21509;-48
2021/06/07 09:22:17;;;;;;;8.80;2.87;;;;;;;20.80;63.31;99465.30;1690232;82;21137;-50
2021/06/07 09:25:12;;;;;;;4.75;3.12;;;;;;;20.83;62.79;99478.72;1679652;82;21057;-50
2021/06/07 09:27:40;;;;;;;6.35;3.80;;;;;;;20.87;61.43;99477.38;1694693;84;20940;-51
2021/06/07 09:30:33;;;;;;;7.22;2.77;;;;;;;20.83;60.41;99466.38;1681695;82;20888;-50
2021/06/07 09:33:25;;;;;;;3.52;2.60;;;;;;;20.83;60.64;99462.27;1668095;83;20971;-50
2021/06/07 09:36:17;;;;;;;;;;;;;;;20.92;60.45;99455.86;1684072;82;21129;-51
2021/06/07 09:38:57;;;;;;;4.97;3.40;;;;;;;21.03;59.68;99469.02;1649647;85;20192;-51
2021/06/07 09:41:33;;;;;;;4.95;2.75;;;;;;;21.09;58.76;99462.45;1677738;82;21007;-50
2021/06/07 09:44:01;;;;;;;4.25;2.67;;;;;;;21.19;58.47;99469.23;1677355;84;20975;-50
2021/06/07 09:46:31;;;;;;;5.80;2.75;;;;;;;21.24;58.06;99454.56;1685154;82;20964;-50
2021/06/07 09:49:10;;;;;;;3.80;2.75;;;;;;;21.25;57.52;99453.53;1679694;82;21114;-49
2021/06/07 09:51:37;;;;;;;4.90;2.70;;;;;;;21.30;58.06;99463.58;1682366;82;20951;-50
2021/06/07 09:54:05;;;;;;;5.05;2.90;;;;;;;21.38;57.93;99451.34;1684664;83;21078;-50
2021/06/07 09:56:32;;;;;;;3.47;2.80;;;;;;;21.43;57.35;99448.15;1686075;82;21438;-51
2021/06/07 09:58:59;;;;;;;5.87;3.40;;;;;;;21.44;57.99;99447.98;1660703;82;20999;-51
2021/06/07 10:01:31;;;;;;;5.78;3.25;;;;;;;21.44;56.48;99446.61;1684747;82;22165;-51
2021/06/07 10:03:59;;;;;;;5.15;3.20;;;;;;;21.37;57.14;99441.40;1684396;82;20959;-50
2021/06/07 10:06:33;;;;;;;5.03;3.15;;;;;;;21.30;57.18;99445.75;1642671;86;21329;-49
2021/06/07 10:09:00;;;;;;;5.05;3.45;;;;;;;21.21;57.83;99441.17;1652857;86;21035;-51
2021/06/07 10:11:33;;;;;;;4.80;3.52;;;;;;;21.17;58.47;99426.03;1685353;82;21485;-49
2021/06/07 10:14:19;;;;;;;7.87;3.90;;;;;;;21.17;56.56;99427.40;1688207;82;21150;-50
2021/06/07 10:17:00;;;;;;;5.33;3.42;;;;;;;21.17;57.88;99431.52;1678251;82;20948;-50
2021/06/07 10:19:58;;;;;;;5.27;2.97;;;;;;;21.20;56.47;99431.22;1680441;82;20928;-50
2021/06/07 10:22:16;;;;;;;5.35;2.80;;;;;;;21.24;57.05;99414.78;1679169;82;20928;-49
2021/06/07 10:24:43;;;;;;;5.00;3.02;;;;;;;21.33;57.02;99407.05;1690677;83;21532;-50
2021/06/07 10:27:09;;;;;;;4.37;2.65;;;;;;;21.41;56.06;99416.76;1703098;82;21137;-51
2021/06/07 10:29:42;;;;;;;3.95;2.83;;;;;;;21.44;55.89;99415.57;1693120;83;21077;-51
2021/06/07 10:32:11;;;;;;;6.45;2.55;;;;;;;21.48;55.87;99407.39;1678401;83;20979;-51
2021/06/07 10:34:57;;;;;;;8.75;2.80;;;;;;;21.42;55.91;99411.62;1694316;83;21050;-49
2021/06/07 10:37:25;;;;;;;5.25;2.60;;;;;;;21.38;56.69;99406.08;1693488;82;20970;-49
2021/06/07 10:40:14;;;;;;;5.78;2.50;;;;;;;21.41;55.55;99397.55;1695334;82;21030;-52
2021/06/07 10:42:59;;;;;;;2.55;2.20;;;;;;;21.43;56.37;99396.88;1696075;82;21365;-50
2021/06/07 10:45:29;;;;;;;3.47;2.50;;;;;;;21.45;56.76;99394.83;1689999;83;21421;-51
2021/06/07 10:47:56;;;;;;;3.67;2.70;;;;;;;21.52;56.17;99412.03;1700596;82;21409;-50
2021/06/07 10:50:29;;;;;;;4.62;2.42;;;;;;;21.52;55.69;99395.57;1695462;83;20964;-51
2021/06/07 10:53:02;;;;;;;3.15;2.40;;;;;;;21.52;55.03;99407.92;1693291;82;21973;-51
2021/06/07 10:55:36;;;;;;;5.37;2.60;;;;;;;21.54;55.19;99419.63;1692304;83;20962;-51
2021/06/07 10:58:13;;;;;;;2.70;2.50;;;;;;;21.54;55.58;99408.65;1690834;82;20935;-50
2021/06/07 11:00:45;;;;;;;3.80;2.98;;;;;;;21.55;56.03;99400.77;1698609;83;21495;-51
2021/06/07 11:03:29;;;;;;;4.08;2.30;;;;;;;21.58;56.43;99396.35;1696949;82;20920;-52
2021/06/07 11:05:58;;;;;;;4.72;2.72;;;;;;;21.65;55.65;99405.67;1698700;83;21311;-51
2021/06/07 11:08:35;;;;;;;3.45;2.77;;;;;;;21.67;55.10;99402.25;1698119;82;21289;-52
2021/06/07 11:11:17;;;;;;;5.75;2.80;;;;;;;21.73;55.91;99404.88;1698456;82;21001;-53
2021/06/07 11:13:54;;;;;;;5.58;3.10;;;;;;;21.76;54.62;99401.31;1700313;83;20959;-51
2021/06/07 11:16:39;;;;;;;3.47;2.52;;;;;;;21.77;54.90;99397.55;1691642;82;20935;-50
2021/06/07 11:19:17;;;;;;;4.60;2.75;;;;;;;21.79;55.16;99394.16;1691871;82;21738;-50
2021/06/07 11:21:57;;;;;;;3.67;2.35;;;;;;;21.84;54.79;99389.53;1699064;82;20951;-52
2021/06/07 11:24:35;;;;;;;3.47;2.87;;;;;;;21.88;55.00;99373.11;1694569;82;21658;-51
2021/06/07 11:27:04;;;;;;;3.72;2.95;;;;;;;21.92;54.87;99380.88;1702376;82;20970;-52
2021/06/07 11:29:32;;;;;;;3.05;2.52;;;;;;;22.00;55.14;99394.30;1693718;82;20979;-53
2021/06/07 11:32:10;;;;;;;3.02;2.70;;;;;;;22.03;54.09;99383.02;1692235;82;21139;-50
2021/06/07 11:34:45;;;;;;;7.37;3.50;;;;;;;22.03;54.85;99381.64;1696434;82;21590;-51
2021/06/07 11:37:35;;;;;;;4.53;3.60;;;;;;;22.03;55.48;99362.42;1697207;82;20887;-50
2021/06/07 11:40:08;;;;;;;3.92;2.77;;;;;;;22.08;55.33;99351.82;1690237;82;20979;-52
2021/06/07 11:42:54;;;;;;;8.23;2.80;;;;;;;22.15;53.47;99367.52;1701422;82;20923;-52
2021/06/07 11:45:39;;;;;;;3.25;2.77;;;;;;;22.20;52.66;99360.17;1695933;82;21108;-50